Mosher, South Dakota
Current Conditions -  °F | °C
As of 9:53 AM on Wednesday 28 Jan 2015 (Local Time) from KICR Reporting Station
Clear Clear  
Wind Chill: 50°   Ceiling: Unl
Heat Index: 50°   Visibility: 10mi
Dew Point: 33°   Wind: 16mph
Humidity: 52%   Direction: 280°W
Pressure: 29.73"   Gusts: NA
Location:  43.2923°N, 99.8934°W
Report Text: KICR 281553Z AUTO 28014KT 10SM CLR 10/01 A2973 RMK AO2 SLP071 T01000006
Loading
Personal Weather Stations






























Interactive Weather Map New forecast layout! Learn more

10-Day Weather Forecast

Advertisements
Track Severe Weather on mobile